METAR Data
IDs: Format: Raw Decoded Include TAF

Data at: 0819 UTC 01 Aug 2021

KIOW 010752Z AUTO 28003KT 5SM HZ CLR 19/16 A3002 RMK AO2 SLP160 T01890161